Time;durP1;ratioP1;P1;durP2;ratioP2;P2;SDS_P1;SDS_P2;PMS_P1;PMS_P2;Temp;Humidity;BMP_temperature;BMP_pressure;BME280_temperature;BME280_humidity;BME280_pressure;Samples;Min_cycle;Max_cycle;Signal;HPM_P1;HPM_P2
2021/04/12 00:00:31;;;;;;;1.95;0.80;;;1.80;99.90;;;;;;5004229;28;20046;-80
2021/04/12 00:03:27;;;;;;;2.72;0.90;;;1.80;99.90;;;;;;5008837;28;20076;-82
2021/04/12 00:06:10;;;;;;;3.75;0.95;;;1.70;99.90;;;;;;5020928;28;20205;-80
2021/04/12 00:08:41;;;;;;;1.45;0.80;;;1.70;99.90;;;;;;5022058;28;20082;-81
2021/04/12 00:11:44;;;;;;;1.48;0.98;;;1.70;99.90;;;;;;5008579;28;20076;-82
2021/04/12 00:14:32;;;;;;;3.08;0.73;;;1.70;99.90;;;;;;5016082;28;20089;-82
2021/04/12 00:17:04;;;;;;;4.93;0.82;;;1.60;99.90;;;;;;5007953;28;20114;-82
2021/04/12 00:20:07;;;;;;;2.42;0.93;;;1.60;99.90;;;;;;5004037;28;20105;-81
2021/04/12 00:22:39;;;;;;;4.90;1.30;;;1.60;99.90;;;;;;5021243;28;20069;-82
2021/04/12 00:25:15;;;;;;;1.40;0.77;;;1.60;99.90;;;;;;5006036;28;20054;-82
2021/04/12 00:27:52;;;;;;;4.30;0.98;;;1.60;99.90;;;;;;5007009;28;20046;-81
2021/04/12 00:30:23;;;;;;;7.95;1.20;;;1.60;99.90;;;;;;5003907;28;20070;-82
2021/04/12 00:33:09;;;;;;;2.78;0.85;;;1.60;99.90;;;;;;5020408;28;20056;-82
2021/04/12 00:35:45;;;;;;;2.20;0.80;;;1.60;99.90;;;;;;5021761;28;20493;-82
2021/04/12 00:38:24;;;;;;;3.17;1.08;;;1.60;99.90;;;;;;5006824;28;20109;-82
2021/04/12 00:41:25;;;;;;;8.30;1.42;;;1.50;99.90;;;;;;5004624;28;20480;-82
2021/04/12 00:44:09;;;;;;;1.05;0.82;;;1.50;99.90;;;;;;5001666;28;20132;-82
2021/04/12 00:46:43;;;;;;;2.92;0.70;;;1.50;99.90;;;;;;5022787;28;20444;-81
2021/04/12 00:49:37;;;;;;;2.88;1.70;;;1.50;99.90;;;;;;5007586;28;20048;-82
2021/04/12 00:52:38;;;;;;;1.73;0.82;;;1.40;99.90;;;;;;5019331;28;20060;-81
2021/04/12 00:55:26;;;;;;;2.75;1.23;;;1.40;99.90;;;;;;5006088;28;20133;-81
2021/04/12 00:58:16;;;;;;;5.00;1.08;;;1.40;99.90;;;;;;5006950;28;20058;-81
2021/04/12 01:00:55;;;;;;;3.67;1.17;;;1.40;99.90;;;;;;5005422;28;20141;-82
2021/04/12 01:03:40;;;;;;;4.28;0.93;;;1.30;99.90;;;;;;5022044;28;20072;-81
2021/04/12 01:06:16;;;;;;;2.92;0.95;;;1.30;99.90;;;;;;5006316;28;20622;-81
2021/04/12 01:09:01;;;;;;;1.70;1.08;;;1.20;99.90;;;;;;5017499;28;20052;-81
2021/04/12 01:11:48;;;;;;;3.55;1.13;;;1.20;99.90;;;;;;5002489;28;20092;-84
2021/04/12 01:14:50;;;;;;;4.63;1.05;;;1.20;99.90;;;;;;5000009;28;20050;-81
2021/04/12 01:17:50;;;;;;;3.70;0.95;;;1.20;99.90;;;;;;5001943;28;20133;-81
2021/04/12 01:20:50;;;;;;;0.80;0.80;;;1.10;99.90;;;;;;5001080;28;20084;-81
2021/04/12 01:24:13;;;;;;;3.13;1.10;;;1.10;99.90;;;;;;5021235;28;20141;-81
2021/04/12 01:27:08;;;;;;;7.55;1.00;;;1.10;99.90;;;;;;4933336;28;20229;-81
2021/04/12 01:30:20;;;;;;;3.65;1.02;;;1.00;99.90;;;;;;4933192;28;20047;-81
2021/04/12 01:33:15;;;;;;;5.82;1.05;;;0.90;99.90;;;;;;5006464;28;20560;-82
2021/04/12 01:36:19;;;;;;;3.60;1.10;;;0.90;99.90;;;;;;5005061;28;20108;-82
2021/04/12 01:39:20;;;;;;;4.05;1.85;;;0.80;99.90;;;;;;5006277;28;20141;-82
2021/04/12 01:42:00;;;;;;;2.80;1.40;;;0.80;99.90;;;;;;5026882;28;20045;-82
2021/04/12 01:44:51;;;;;;;5.07;1.58;;;0.80;99.90;;;;;;5025798;28;20061;-82
2021/04/12 01:47:26;;;;;;;5.00;1.25;;;0.80;99.90;;;;;;5007237;28;20054;-82
2021/04/12 01:50:07;;;;;;;6.38;1.42;;;0.90;99.90;;;;;;5004288;28;20050;-82
2021/04/12 01:53:05;;;;;;;3.38;1.40;;;0.90;99.90;;;;;;5009430;28;20094;-81
2021/04/12 01:55:42;;;;;;;10.48;1.45;;;0.90;99.90;;;;;;5025364;28;20103;-82
2021/04/12 01:58:24;;;;;;;8.40;1.52;;;0.90;99.90;;;;;;5010592;28;20053;-81
2021/04/12 02:01:38;;;;;;;7.55;1.30;;;0.90;99.90;;;;;;5024324;28;20049;-82
2021/04/12 02:04:11;;;;;;;3.70;1.50;;;0.90;99.90;;;;;;4997571;28;20046;-82
2021/04/12 02:06:46;;;;;;;4.18;1.55;;;0.90;99.90;;;;;;5008682;28;20117;-81
2021/04/12 02:09:39;;;;;;;6.38;1.77;;;0.90;99.90;;;;;;5023212;28;20094;-82
2021/04/12 02:12:31;;;;;;;4.65;1.92;;;0.80;99.90;;;;;;5021535;28;20045;-82
2021/04/12 02:15:07;;;;;;;5.75;1.98;;;0.80;99.90;;;;;;5024199;28;20100;-82
2021/04/12 02:18:06;;;;;;;9.32;2.33;;;0.80;99.90;;;;;;5025671;28;20119;-82
2021/04/12 02:20:57;;;;;;;4.50;2.08;;;0.80;99.90;;;;;;5006107;28;20100;-82
2021/04/12 02:23:45;;;;;;;6.03;2.33;;;0.80;99.90;;;;;;5009825;28;20100;-80
2021/04/12 02:26:36;;;;;;;4.38;2.40;;;0.90;99.90;;;;;;5027171;28;20073;-80
2021/04/12 02:29:40;;;;;;;11.18;2.50;;;1.00;99.90;;;;;;5008760;28;20537;-81
2021/04/12 02:32:16;;;;;;;7.05;2.10;;;1.10;99.90;;;;;;5025384;28;20103;-81
2021/04/12 02:35:16;;;;;;;6.72;2.40;;;1.10;99.90;;;;;;5007154;28;20046;-81
2021/04/12 02:38:23;;;;;;;5.43;2.22;;;1.00;99.90;;;;;;5023679;28;20046;-81
2021/04/12 02:40:55;;;;;;;8.38;2.30;;;1.00;99.90;;;;;;5019583;28;20479;-81
2021/04/12 02:43:49;;;;;;;11.88;2.47;;;1.00;99.90;;;;;;5023621;28;20061;-82
2021/04/12 02:46:51;;;;;;;5.20;2.22;;;0.90;99.90;;;;;;5008955;28;20137;-81
2021/04/12 02:49:53;;;;;;;9.52;2.45;;;0.90;99.90;;;;;;5007071;28;20488;-81
2021/04/12 02:52:35;;;;;;;8.88;3.08;;;0.90;99.90;;;;;;5019631;28;20042;-80
2021/04/12 02:55:23;;;;;;;11.57;2.90;;;0.80;99.90;;;;;;5010794;28;20100;-82
2021/04/12 02:58:05;;;;;;;5.78;2.38;;;0.80;99.90;;;;;;5022306;28;20053;-81
2021/04/12 03:01:01;;;;;;;4.85;2.38;;;0.70;99.90;;;;;;5022806;28;20073;-81
2021/04/12 03:03:52;;;;;;;7.65;3.55;;;0.70;99.90;;;;;;5022467;28;20137;-82
2021/04/12 03:07:00;;;;;;;4.80;2.38;;;0.60;99.90;;;;;;5020855;28;20623;-82
2021/04/12 03:09:46;;;;;;;8.02;2.72;;;0.60;99.90;;;;;;5007298;28;20463;-82
2021/04/12 03:12:38;;;;;;;6.13;2.28;;;0.60;99.90;;;;;;5003034;28;20045;-81
2021/04/12 03:15:22;;;;;;;7.82;2.65;;;0.50;99.90;;;;;;4997684;28;20058;-81
2021/04/12 03:18:26;;;;;;;12.35;2.75;;;0.50;99.90;;;;;;5021270;28;20136;-81
2021/04/12 03:21:21;;;;;;;17.50;3.20;;;0.50;99.90;;;;;;5017965;28;20046;-82
2021/04/12 03:24:15;;;;;;;7.13;2.78;;;0.40;99.90;;;;;;5007456;28;20473;-82
2021/04/12 03:26:48;;;;;;;6.75;3.28;;;0.40;99.90;;;;;;5006790;28;20538;-82
2021/04/12 03:29:44;;;;;;;9.50;2.85;;;0.40;99.90;;;;;;5005080;28;20190;-82
2021/04/12 03:32:32;;;;;;;11.90;3.20;;;0.30;99.90;;;;;;5006534;28;20049;-82
2021/04/12 03:35:18;;;;;;;6.55;2.88;;;0.30;99.90;;;;;;5007551;28;20054;-81
2021/04/12 03:37:55;;;;;;;14.40;3.10;;;0.30;99.90;;;;;;5024671;28;20159;-81
2021/04/12 03:40:26;;;;;;;9.60;3.70;;;0.30;99.90;;;;;;5010979;28;20064;-81
2021/04/12 03:43:11;;;;;;;6.15;3.00;;;0.20;99.90;;;;;;5018526;28;20075;-81
2021/04/12 03:45:46;;;;;;;11.48;3.80;;;0.20;99.90;;;;;;5002853;28;20413;-81
2021/04/12 03:48:43;;;;;;;11.43;3.30;;;0.20;99.90;;;;;;5006459;28;20054;-81
2021/04/12 03:51:29;;;;;;;5.65;3.42;;;0.30;99.90;;;;;;5021528;28;20450;-81
2021/04/12 03:54:31;;;;;;;9.93;3.08;;;0.20;99.90;;;;;;5007914;28;20073;-81
2021/04/12 03:57:36;;;;;;;8.48;3.45;;;0.20;99.90;;;;;;5007360;28;20156;-81
2021/04/12 04:00:33;;;;;;;7.57;2.85;;;0.20;99.90;;;;;;5016068;28;20489;-81
2021/04/12 04:03:40;;;;;;;7.22;3.35;;;0.20;99.90;;;;;;5002246;28;20053;-81
2021/04/12 04:06:39;;;;;;;5.13;2.97;;;0.20;99.90;;;;;;5007764;28;20068;-81
2021/04/12 04:09:21;;;;;;;7.38;3.53;;;0.20;99.90;;;;;;5021903;28;20049;-81
2021/04/12 04:12:28;;;;;;;5.93;3.15;;;0.20;99.90;;;;;;4998276;28;20529;-81
2021/04/12 04:15:31;;;;;;;6.85;2.65;;;0.20;99.90;;;;;;5004482;28;20101;-81
2021/04/12 04:18:04;;;;;;;5.10;2.42;;;0.10;99.90;;;;;;5023249;28;20124;-81
2021/04/12 04:20:53;;;;;;;9.15;2.90;;;0.10;99.90;;;;;;5005463;28;20049;-80
2021/04/12 04:23:54;;;;;;;3.55;1.90;;;0.10;99.90;;;;;;5020512;28;20049;-82
2021/04/12 04:26:55;;;;;;;4.85;2.10;;;0.20;99.90;;;;;;5016987;28;20137;-82
2021/04/12 04:29:48;;;;;;;6.03;2.35;;;0.20;99.90;;;;;;5002676;28;20054;-81
2021/04/12 04:32:35;;;;;;;6.40;1.75;;;0.20;99.90;;;;;;5023088;28;20128;-82
2021/04/12 04:35:19;;;;;;;8.15;2.38;;;0.20;99.90;;;;;;5004172;28;20152;-82
2021/04/12 04:38:35;;;;;;;7.45;2.97;;;0.20;99.90;;;;;;5002199;28;20081;-82
2021/04/12 04:41:21;;;;;;;6.13;2.63;;;0.20;99.90;;;;;;5002627;28;20100;-82
2021/04/12 04:44:11;;;;;;;6.88;2.67;;;0.20;99.90;;;;;;5001070;28;20056;-81
2021/04/12 04:47:17;;;;;;;9.15;3.60;;;0.20;99.90;;;;;;5001644;28;20136;-82
2021/04/12 04:50:31;;;;;;;8.30;2.25;;;0.10;99.90;;;;;;5020215;28;20105;-82
2021/04/12 04:53:16;;;;;;;5.73;2.10;;;0.10;99.90;;;;;;4956749;28;20420;-82
2021/04/12 04:55:57;;;;;;;8.48;1.60;;;0.10;99.90;;;;;;5019595;28;20107;-82
2021/04/12 04:58:56;;;;;;;8.02;1.70;;;0.00;99.90;;;;;;5007046;28;20056;-82
2021/04/12 05:01:22;;;;;;;10.23;1.42;;;0.00;99.90;;;;;;5006943;28;20081;-82
2021/04/12 05:04:00;;;;;;;2.92;1.38;;;0.00;99.90;;;;;;5009023;28;20068;-82
2021/04/12 05:06:50;;;;;;;11.40;3.40;;;0.00;99.90;;;;;;5020167;28;20060;-83
2021/04/12 05:09:50;;;;;;;5.80;2.92;;;0.00;99.90;;;;;;5004654;28;20054;-83
2021/04/12 05:12:35;;;;;;;25.23;8.43;;;0.00;99.90;;;;;;5021918;28;20054;-82
2021/04/12 05:15:20;;;;;;;9.70;4.07;;;0.00;99.90;;;;;;5013006;28;20053;-82
2021/04/12 05:18:10;;;;;;;7.97;2.88;;;0.00;99.90;;;;;;5018616;28;20049;-83
2021/04/12 05:21:10;;;;;;;4.70;2.65;;;0.00;99.90;;;;;;4998461;28;20077;-82
2021/04/12 05:24:01;;;;;;;3.85;2.00;;;0.10;99.90;;;;;;5017971;28;20425;-82
2021/04/12 05:26:30;;;;;;;4.35;2.55;;;0.10;99.90;;;;;;5003836;28;20060;-82
2021/04/12 05:29:15;;;;;;;9.10;2.92;;;0.10;99.90;;;;;;5000133;28;20156;-82
2021/04/12 05:32:06;;;;;;;5.10;2.72;;;0.10;99.90;;;;;;5017969;28;20050;-83
2021/04/12 05:35:02;;;;;;;6.20;3.22;;;0.20;99.90;;;;;;5015068;28;20429;-82
2021/04/12 05:37:50;;;;;;;18.80;7.00;;;0.20;99.90;;;;;;5016243;28;20064;-82
2021/04/12 05:40:16;;;;;;;8.05;3.53;;;0.30;99.90;;;;;;5016503;28;20042;-82
2021/04/12 05:43:04;;;;;;;4.70;2.83;;;0.30;99.90;;;;;;5001680;28;20089;-82
2021/04/12 05:45:39;;;;;;;7.13;2.85;;;0.40;99.90;;;;;;5012336;28;20133;-80
2021/04/12 05:48:40;;;;;;;6.55;3.17;;;0.50;99.90;;;;;;4989965;28;20144;-81
2021/04/12 05:51:25;;;;;;;10.43;4.35;;;0.60;99.90;;;;;;4997922;28;20046;-81
2021/04/12 05:54:25;;;;;;;11.45;3.92;;;0.70;99.90;;;;;;5013903;28;20116;-81
2021/04/12 05:57:29;;;;;;;3.92;2.17;;;0.80;99.90;;;;;;4996173;28;20052;-82
2021/04/12 06:00:17;;;;;;;6.95;2.42;;;0.90;99.90;;;;;;5015325;28;20050;-82
2021/04/12 06:03:12;;;;;;;10.70;2.45;;;1.10;99.90;;;;;;4997707;28;20482;-82
2021/04/12 06:05:59;;;;;;;8.85;2.40;;;1.20;99.90;;;;;;4997755;28;20053;-82
2021/04/12 06:09:02;;;;;;;7.97;2.83;;;1.40;99.90;;;;;;5015288;28;20050;-80
2021/04/12 06:11:58;;;;;;;7.85;2.17;;;1.70;99.90;;;;;;5004597;28;20046;-81
2021/04/12 06:15:05;;;;;;;8.10;1.70;;;2.00;99.90;;;;;;5023720;28;20056;-81
2021/04/12 06:17:40;;;;;;;8.18;2.28;;;2.10;99.90;;;;;;5003032;28;20113;-80
2021/04/12 06:20:30;;;;;;;6.25;1.55;;;2.30;99.90;;;;;;5004700;28;20056;-81
2021/04/12 06:23:27;;;;;;;7.82;1.30;;;2.60;99.90;;;;;;5002979;28;20070;-81
2021/04/12 06:26:27;;;;;;;8.50;1.83;;;2.90;99.90;;;;;;5006487;28;20072;-80
2021/04/12 06:29:31;;;;;;;3.38;1.13;;;3.20;99.90;;;;;;5023627;28;20113;-80
2021/04/12 06:31:57;;;;;;;5.85;1.13;;;3.70;99.90;;;;;;5024976;28;20068;-82
2021/04/12 06:34:42;;;;;;;4.93;1.20;;;4.30;99.90;;;;;;5023994;28;20049;-82
2021/04/12 06:37:56;;;;;;;5.00;1.00;;;4.80;99.90;;;;;;5023910;28;20070;-82
2021/04/12 06:40:36;;;;;;;5.07;1.08;;;5.50;99.90;;;;;;4969704;28;20085;-82
2021/04/12 06:43:40;;;;;;;3.67;1.83;;;6.00;99.90;;;;;;5003382;28;20592;-82
2021/04/12 06:46:26;;;;;;;7.25;2.92;;;6.50;99.90;;;;;;5003817;28;20084;-82
2021/04/12 06:49:13;;;;;;;2.90;1.02;;;6.70;99.90;;;;;;5018316;28;20042;-82
2021/04/12 06:52:19;;;;;;;2.05;0.90;;;6.90;99.90;;;;;;5021524;28;20132;-83
2021/04/12 06:55:25;;;;;;;4.10;1.02;;;7.10;99.90;;;;;;5019609;28;20172;-83
2021/04/12 06:58:25;;;;;;;4.20;1.10;;;7.10;99.90;;;;;;5018333;28;20132;-82
2021/04/12 07:01:13;;;;;;;3.97;1.08;;;7.00;99.90;;;;;;5016594;28;20508;-81
2021/04/12 07:04:04;;;;;;;3.70;1.52;;;6.90;99.90;;;;;;5022138;28;20054;-82
2021/04/12 07:06:40;;;;;;;6.63;1.30;;;6.80;99.90;;;;;;5008877;28;20076;-82
2021/04/12 07:09:38;;;;;;;4.60;0.93;;;6.70;99.90;;;;;;5014336;28;20049;-82
2021/04/12 07:12:22;;;;;;;4.90;1.60;;;6.60;99.90;;;;;;5020933;28;20476;-82
2021/04/12 07:15:21;;;;;;;3.13;1.02;;;6.50;99.90;;;;;;5006152;28;20048;-81
2021/04/12 07:18:32;;;;;;;4.15;1.67;;;6.40;99.90;;;;;;5024910;28;20069;-82
2021/04/12 07:21:41;;;;;;;6.47;1.88;;;6.30;99.90;;;;;;4993618;28;20042;-81
2021/04/12 07:24:48;;;;;;;1.55;0.80;;;6.30;99.90;;;;;;4995873;28;20045;-81
2021/04/12 07:27:51;;;;;;;3.58;1.10;;;6.20;99.90;;;;;;5004857;28;20050;-81
2021/04/12 07:31:01;;;;;;;4.10;1.17;;;6.30;99.90;;;;;;5005412;28;20046;-82
2021/04/12 07:33:49;;;;;;;3.85;0.80;;;6.40;99.90;;;;;;4999526;28;20073;-82
2021/04/12 07:36:34;;;;;;;1.48;0.98;;;6.50;99.90;;;;;;5008591;28;20105;-81
2021/04/12 07:39:35;;;;;;;1.33;0.70;;;6.60;99.90;;;;;;4998992;28;20052;-82
2021/04/12 07:42:26;;;;;;;2.90;1.05;;;6.70;99.90;;;;;;5015860;28;20060;-82
2021/04/12 07:45:23;;;;;;;7.43;0.85;;;6.90;99.90;;;;;;5017625;28;20042;-81
2021/04/12 07:48:40;;;;;;;4.40;0.85;;;7.10;99.90;;;;;;5015012;28;20050;-81
2021/04/12 07:51:40;;;;;;;6.35;1.67;;;7.30;99.90;;;;;;4996111;28;20074;-81
2021/04/12 07:54:28;;;;;;;5.40;0.88;;;7.60;99.90;;;;;;5019506;28;20052;-81
2021/04/12 07:57:27;;;;;;;3.72;0.80;;;8.00;99.90;;;;;;5016402;28;20053;-82
2021/04/12 08:00:31;;;;;;;7.65;1.20;;;8.20;99.90;;;;;;5000535;28;20046;-82
2021/04/12 08:03:27;;;;;;;4.10;1.35;;;7.90;99.90;;;;;;5001875;28;20077;-82
2021/04/12 08:06:14;;;;;;;6.75;1.20;;;7.50;99.90;;;;;;4996653;28;20069;-82
2021/04/12 08:08:49;;;;;;;4.32;2.17;;;7.20;99.90;;;;;;5014583;28;20077;-81
2021/04/12 08:12:11;;;;;;;8.52;1.45;;;7.00;99.90;;;;;;5000776;28;20136;-82
2021/04/12 08:14:58;;;;;;;6.88;1.65;;;6.80;99.90;;;;;;4999784;28;20049;-81
2021/04/12 08:17:54;;;;;;;6.22;1.23;;;6.70;99.90;;;;;;5020504;28;20144;-82
2021/04/12 08:21:07;;;;;;;5.00;0.90;;;6.60;99.90;;;;;;5019649;28;20046;-82
2021/04/12 08:24:11;;;;;;;5.03;0.77;;;6.50;99.90;;;;;;4975598;28;20050;-82
2021/04/12 08:27:12;;;;;;;3.25;0.63;;;6.50;99.90;;;;;;5006026;28;20084;-82
2021/04/12 08:29:48;;;;;;;2.60;0.50;;;6.50;99.90;;;;;;5012346;28;20073;-82
2021/04/12 08:32:49;;;;;;;0.98;0.35;;;6.50;99.90;;;;;;4997251;28;20083;-82
2021/04/12 08:35:21;;;;;;;5.25;0.85;;;6.50;99.90;;;;;;4997275;28;20464;-81
2021/04/12 08:38:24;;;;;;;1.27;0.50;;;6.50;99.90;;;;;;5016101;28;20049;-81
2021/04/12 08:41:32;;;;;;;3.47;0.63;;;6.50;99.90;;;;;;5014234;28;20064;-81
2021/04/12 08:44:33;;;;;;;4.55;1.00;;;6.40;99.90;;;;;;4999897;28;20432;-82
2021/04/12 08:47:13;;;;;;;3.75;0.95;;;6.40;99.90;;;;;;5000500;28;20505;-81
2021/04/12 08:50:11;;;;;;;6.32;1.00;;;6.50;99.90;;;;;;4995301;28;20046;-81
2021/04/12 08:53:21;;;;;;;5.47;0.93;;;6.60;99.90;;;;;;5013164;28;20049;-81
2021/04/12 08:56:25;;;;;;;5.93;1.08;;;6.80;99.90;;;;;;4961207;28;20059;-81
2021/04/12 08:59:29;;;;;;;6.25;1.45;;;7.10;99.90;;;;;;4998114;28;20071;-80
2021/04/12 09:02:32;;;;;;;5.90;1.48;;;7.50;99.90;;;;;;4996134;28;20054;-80
2021/04/12 09:05:21;;;;;;;4.15;1.30;;;7.90;99.90;;;;;;4994677;28;20513;-81
2021/04/12 09:08:04;;;;;;;3.40;0.80;;;8.20;99.90;;;;;;5013705;28;20069;-83
2021/04/12 09:11:08;;;;;;;2.50;0.87;;;8.40;99.90;;;;;;5014602;28;20116;-82
2021/04/12 09:14:21;;;;;;;2.65;0.77;;;8.40;99.90;;;;;;5010576;28;20053;-82
2021/04/12 09:17:11;;;;;;;5.47;1.10;;;8.40;99.90;;;;;;4978472;28;20196;-81
2021/04/12 09:20:14;;;;;;;7.55;1.02;;;8.50;99.90;;;;;;4996202;28;20050;-81
2021/04/12 09:23:18;;;;;;;3.80;1.30;;;8.70;99.90;;;;;;4997861;28;20078;-81
2021/04/12 09:26:26;;;;;;;3.63;1.48;;;8.70;99.90;;;;;;5013125;28;20049;-80
2021/04/12 09:29:08;;;;;;;4.63;1.40;;;8.50;99.90;;;;;;4999113;28;20054;-81
2021/04/12 09:31:49;;;;;;;3.88;0.80;;;8.00;99.90;;;;;;5012253;28;20054;-81
2021/04/12 09:34:42;;;;;;;1.40;0.73;;;7.60;99.90;;;;;;4998180;28;20140;-81
2021/04/12 09:37:42;;;;;;;5.22;0.90;;;7.40;99.90;;;;;;4995332;28;20053;-82
2021/04/12 09:40:30;;;;;;;3.53;1.08;;;7.20;99.90;;;;;;5011144;28;20034;-81
2021/04/12 09:43:34;;;;;;;2.85;0.93;;;7.10;99.90;;;;;;4996751;28;20124;-82
2021/04/12 09:46:11;;;;;;;16.08;2.10;;;7.10;99.90;;;;;;4997394;28;20058;-82
2021/04/12 09:49:14;;;;;;;7.32;1.08;;;7.40;99.90;;;;;;5020028;28;20062;-82
2021/04/12 09:51:48;;;;;;;2.65;1.40;;;7.60;99.90;;;;;;5000332;28;20078;-81
2021/04/12 09:54:33;;;;;;;;;;;7.80;99.90;;;;;;5019622;28;20108;-81
2021/04/12 09:57:31;;;;;;;3.47;1.05;;;7.80;99.90;;;;;;5019628;28;19941;-82
2021/04/12 10:00:10;;;;;;;4.25;0.80;;;7.80;99.90;;;;;;5021963;28;20061;-81
2021/04/12 10:02:52;;;;;;;2.92;0.90;;;7.80;99.90;;;;;;5025427;28;20123;-81
2021/04/12 10:05:56;;;;;;;8.18;2.28;;;7.70;99.90;;;;;;5024876;28;20045;-81
2021/04/12 10:08:38;;;;;;;3.85;1.00;;;7.50;99.90;;;;;;5021216;28;20049;-82
2021/04/12 10:11:15;;;;;;;3.30;1.10;;;7.30;99.90;;;;;;5019281;28;20064;-82
2021/04/12 10:14:14;;;;;;;5.05;1.13;;;7.10;99.90;;;;;;5023667;28;20161;-82
2021/04/12 10:16:47;;;;;;;5.75;1.35;;;7.20;99.90;;;;;;5026223;28;20049;-82
2021/04/12 10:19:21;;;;;;;4.68;1.00;;;7.50;99.90;;;;;;5010351;28;20119;-82
2021/04/12 10:21:57;;;;;;;2.70;1.00;;;7.80;99.90;;;;;;5007391;28;20069;-82
2021/04/12 10:24:43;;;;;;;3.53;0.70;;;8.20;99.90;;;;;;5010248;28;20073;-82
2021/04/12 10:27:21;;;;;;;4.18;1.00;;;8.40;99.90;;;;;;5023216;28;20062;-82
2021/04/12 10:30:01;;;;;;;3.70;1.73;;;8.50;99.90;;;;;;5024659;28;20060;-81
2021/04/12 10:32:41;;;;;;;6.25;2.00;;;8.20;99.90;;;;;;4998289;28;20049;-81
2021/04/12 10:35:37;;;;;;;4.35;2.25;;;7.70;99.90;;;;;;5000895;28;20060;-82
2021/04/12 10:38:06;;;;;;;3.33;3.03;;;7.10;99.90;;;;;;4998337;28;20100;-82
2021/04/12 10:40:44;;;;;;;7.28;2.25;;;6.60;99.90;;;;;;5022334;28;20508;-82
2021/04/12 10:44:03;;;;;;;7.40;2.92;;;6.30;99.90;;;;;;5022878;28;20054;-82
2021/04/12 10:46:57;;;;;;;5.90;3.10;;;6.30;99.90;;;;;;5009399;28;20080;-82
2021/04/12 10:49:51;;;;;;;4.03;3.10;;;6.80;99.90;;;;;;5024512;28;20098;-82
2021/04/12 10:52:41;;;;;;;3.05;2.65;;;7.40;99.90;;;;;;5005549;28;20501;-82
2021/04/12 10:55:18;;;;;;;4.47;2.00;;;8.00;99.90;;;;;;5007597;28;20084;-82
2021/04/12 10:58:11;;;;;;;4.38;2.15;;;8.60;99.90;;;;;;5006648;28;20050;-82
2021/04/12 11:01:02;;;;;;;5.18;1.67;;;9.10;99.90;;;;;;5021274;28;20717;-82
2021/04/12 11:03:44;;;;;;;2.47;1.70;;;9.50;99.90;;;;;;5025610;28;20053;-82
2021/04/12 11:06:39;;;;;;;4.20;1.30;;;9.90;99.90;;;;;;5025311;28;20076;-82
2021/04/12 11:09:26;;;;;;;1.80;1.30;;;9.90;99.90;;;;;;5008096;28;20061;-82
2021/04/12 11:12:14;;;;;;;4.25;1.00;;;9.80;99.90;;;;;;5005623;28;20050;-83
2021/04/12 11:14:52;;;;;;;1.60;1.10;;;9.60;99.90;;;;;;5007589;28;20467;-83
2021/04/12 11:17:27;;;;;;;3.45;1.00;;;9.50;99.90;;;;;;5007197;28;20049;-83
2021/04/12 11:20:00;;;;;;;1.92;0.90;;;9.40;99.90;;;;;;5024301;28;20533;-82
2021/04/12 11:22:55;;;;;;;2.38;1.58;;;9.50;99.90;;;;;;5016932;28;20089;-83
2021/04/12 11:25:48;;;;;;;3.15;1.00;;;9.50;99.90;;;;;;5021537;28;20109;-82
2021/04/12 11:28:18;;;;;;;2.75;1.20;;;9.40;99.90;;;;;;5005839;28;20068;-81
2021/04/12 11:30:57;;;;;;;2.33;1.38;;;9.40;99.90;;;;;;5008791;28;20057;-82
2021/04/12 11:33:49;;;;;;;2.20;1.17;;;9.50;99.90;;;;;;5013117;28;20054;-82
2021/04/12 11:36:36;;;;;;;3.90;1.23;;;9.40;99.90;;;;;;5020099;28;20046;-82
2021/04/12 11:39:28;;;;;;;4.80;1.25;;;9.50;99.90;;;;;;5003907;28;20555;-82
2021/04/12 11:41:56;;;;;;;3.00;1.38;;;9.70;99.90;;;;;;5023616;28;20490;-82
2021/04/12 11:44:32;;;;;;;3.83;1.33;;;10.00;99.90;;;;;;5021373;28;20057;-81
2021/04/12 11:47:11;;;;;;;1.83;1.10;;;10.20;99.90;;;;;;5000413;28;20050;-82
2021/04/12 11:50:09;;;;;;;3.08;1.17;;;10.20;99.90;;;;;;5005648;28;20058;-82
2021/04/12 11:52:57;;;;;;;2.63;1.40;;;10.00;99.90;;;;;;5004592;28;20102;-82
2021/04/12 11:55:42;;;;;;;3.22;0.90;;;9.80;99.90;;;;;;5007312;28;20049;-82
2021/04/12 11:58:28;;;;;;;8.32;1.35;;;9.60;99.90;;;;;;5000140;28;20057;-81
2021/04/12 12:01:11;;;;;;;2.63;0.45;;;9.70;99.90;;;;;;4996759;28;20091;-81
2021/04/12 12:04:00;;;;;;;1.35;0.43;;;9.80;98.30;;;;;;5005577;28;20464;-81
2021/04/12 12:06:44;;;;;;;0.38;0.38;;;10.00;95.30;;;;;;5024848;28;20053;-80
2021/04/12 12:09:43;;;;;;;3.05;0.90;;;10.40;93.20;;;;;;5004469;28;20053;-82
2021/04/12 12:12:47;;;;;;;4.55;0.57;;;10.90;95.20;;;;;;5001219;28;20129;-82
2021/04/12 12:15:36;;;;;;;1.60;0.22;;;11.60;90.30;;;;;;5000181;28;20109;-81
2021/04/12 12:18:24;;;;;;;2.33;0.65;;;12.20;84.70;;;;;;5002787;28;20065;-81
2021/04/12 12:20:59;;;;;;;1.48;0.57;;;13.00;75.90;;;;;;5003136;28;20050;-82
2021/04/12 12:23:48;;;;;;;3.22;0.60;;;13.50;69.70;;;;;;5005552;28;20057;-82
2021/04/12 12:26:54;;;;;;;0.50;0.50;;;13.70;69.40;;;;;;4998021;28;20059;-82
2021/04/12 12:29:25;;;;;;;2.50;0.90;;;14.00;65.70;;;;;;5003378;28;20054;-82
2021/04/12 12:32:13;;;;;;;1.95;0.70;;;14.60;63.10;;;;;;5005585;28;20406;-82
2021/04/12 12:34:56;;;;;;;1.33;0.80;;;15.10;60.20;;;;;;4999293;28;20050;-82
2021/04/12 12:37:51;;;;;;;2.63;0.85;;;15.20;58.30;;;;;;5003046;28;20104;-82
2021/04/12 12:40:47;;;;;;;0.90;0.70;;;15.20;55.70;;;;;;5023270;28;20129;-82
2021/04/12 12:43:31;;;;;;;2.83;0.70;;;14.80;57.40;;;;;;4995990;28;20053;-82
2021/04/12 12:46:16;;;;;;;;;;;15.00;58.80;;;;;;5004522;28;20486;-81
2021/04/12 12:49:03;;;;;;;0.93;0.60;;;15.70;55.20;;;;;;5021866;28;20016;-82
2021/04/12 12:51:40;;;;;;;4.53;0.63;;;16.90;53.00;;;;;;5005780;28;20048;-82
2021/04/12 12:54:11;;;;;;;2.90;0.80;;;18.00;51.00;;;;;;5006118;28;20049;-82
2021/04/12 12:56:41;;;;;;;2.10;0.75;;;18.70;48.40;;;;;;5002665;28;20402;-83
2021/04/12 12:59:25;;;;;;;3.17;0.80;;;18.80;48.90;;;;;;5004766;28;20042;-81
2021/04/12 13:01:53;;;;;;;1.77;0.70;;;18.40;48.90;;;;;;5000546;28;20071;-82
2021/04/12 13:04:28;;;;;;;4.65;0.93;;;18.40;48.80;;;;;;5005900;28;20093;-82
2021/04/12 13:07:08;;;;;;;2.88;0.50;;;18.70;48.70;;;;;;5018963;28;20058;-82
2021/04/12 13:09:37;;;;;;;4.90;0.73;;;18.60;46.20;;;;;;5003260;28;20046;-82
2021/04/12 13:12:03;;;;;;;2.97;0.70;;;18.90;44.20;;;;;;5003902;28;20184;-81
2021/04/12 13:14:43;;;;;;;2.72;0.80;;;19.30;43.80;;;;;;5021251;28;20057;-82
2021/04/12 13:17:18;;;;;;;2.00;0.52;;;19.40;45.10;;;;;;5004295;28;20054;-82
2021/04/12 13:19:51;;;;;;;1.77;0.40;;;18.60;45.20;;;;;;4999714;28;20053;-82
2021/04/12 13:22:30;;;;;;;2.05;0.50;;;18.30;44.50;;;;;;4998437;28;20053;-81
2021/04/12 13:25:52;;;;;;;2.75;0.40;;;17.50;47.90;;;;;;5003047;28;20159;-81
2021/04/12 13:28:32;;;;;;;1.30;0.30;;;16.90;48.70;;;;;;4974850;28;20046;-81
2021/04/12 13:31:05;;;;;;;2.53;0.60;;;15.80;51.60;;;;;;5013735;28;20074;-81
2021/04/12 13:34:01;;;;;;;3.40;0.38;;;14.70;55.50;;;;;;5008237;28;20049;-82
2021/04/12 13:36:38;;;;;;;1.73;0.60;;;14.00;59.70;;;;;;5002846;28;20053;-82
2021/04/12 13:39:11;;;;;;;1.27;0.40;;;14.80;60.00;;;;;;5019152;28;20068;-81
2021/04/12 13:41:45;;;;;;;3.72;0.40;;;16.10;56.60;;;;;;5021358;28;20057;-81
2021/04/12 13:44:16;;;;;;;1.27;0.30;;;17.00;55.10;;;;;;5020301;28;20133;-82
2021/04/12 13:47:01;;;;;;;2.65;0.25;;;18.60;50.00;;;;;;5005171;28;20923;-82
2021/04/12 13:49:49;;;;;;;0.73;0.17;;;20.20;46.70;;;;;;5020667;28;20057;-82
2021/04/12 13:52:22;;;;;;;1.15;0.20;;;20.80;43.10;;;;;;5004900;28;20053;-82
2021/04/12 13:55:19;;;;;;;0.73;0.55;;;21.10;44.90;;;;;;5018169;28;20117;-82
2021/04/12 13:57:52;;;;;;;2.30;0.70;;;21.90;41.50;;;;;;5006141;28;20387;-82
2021/04/12 14:00:24;;;;;;;2.72;0.95;;;22.60;41.10;;;;;;5003992;28;20058;-82
2021/04/12 14:03:02;;;;;;;1.38;0.70;;;23.30;39.90;;;;;;5005580;28;20050;-82
2021/04/12 14:05:35;;;;;;;1.88;0.80;;;23.00;37.50;;;;;;4988148;28;20073;-82
2021/04/12 14:08:23;;;;;;;1.83;0.50;;;21.30;37.90;;;;;;5020253;28;20050;-82
2021/04/12 14:11:02;;;;;;;1.73;0.32;;;19.80;42.60;;;;;;5018708;28;20058;-82
2021/04/12 14:13:33;;;;;;;2.75;0.50;;;19.90;42.50;;;;;;5020549;28;20069;-82
2021/04/12 14:16:24;;;;;;;2.65;0.65;;;19.90;42.70;;;;;;5019843;28;20474;-82
2021/04/12 14:19:29;;;;;;;0.90;0.30;;;19.90;42.90;;;;;;5009745;28;20060;-82
2021/04/12 14:22:12;;;;;;;1.50;0.43;;;20.20;40.70;;;;;;5004083;28;20161;-81
2021/04/12 14:24:43;;;;;;;;;;;19.00;42.70;;;;;;5000434;28;20053;-82
2021/04/12 14:27:32;;;;;;;1.38;0.50;;;17.20;47.90;;;;;;5004706;28;19961;-81
2021/04/12 14:30:12;;;;;;;1.35;0.22;;;15.50;52.30;;;;;;5005889;28;20583;-81
2021/04/12 14:33:01;;;;;;;1.33;0.50;;;13.90;54.80;;;;;;5023246;28;20780;-81
2021/04/12 14:35:40;;;;;;;1.15;0.30;;;12.40;59.70;;;;;;5026082;28;20477;-80
2021/04/12 14:38:22;;;;;;;1.67;0.75;;;11.30;64.70;;;;;;5024718;28;20216;-81
2021/04/12 14:41:10;;;;;;;2.05;0.65;;;10.50;68.70;;;;;;5008881;28;20101;-81
2021/04/12 14:43:40;;;;;;;0.60;0.30;;;9.60;75.80;;;;;;5023805;28;20061;-82
2021/04/12 14:46:16;;;;;;;0.70;0.28;;;9.10;87.40;;;;;;5022264;28;20620;-82
2021/04/12 14:48:58;;;;;;;3.15;0.40;;;8.70;93.90;;;;;;5020022;28;20061;-81